Time;durP1;ratioP1;P1;durP2;ratioP2;P2;SDS_P1;SDS_P2;PMS_P1;PMS_P2;Temp;Humidity;BMP_temperature;BMP_pressure;BME280_temperature;BME280_humidity;BME280_pressure;Samples;Min_cycle;Max_cycle;Signal;HPM_P1;HPM_P2
2023/05/27 00:01:27;;;;;;;23.67;14.20;;;;;;;15.65;89.83;100315.89;123782;1099;104580;-78
2023/05/27 00:03:56;;;;;;;22.37;14.57;;;;;;;15.61;89.89;100314.06;123768;1099;104341;-78
2023/05/27 00:06:24;;;;;;;21.57;13.57;;;;;;;15.59;89.40;100313.17;123479;1099;104321;-78
2023/05/27 00:08:53;;;;;;;24.77;14.17;;;;;;;15.56;89.40;100310.48;123424;1099;104226;-77
2023/05/27 00:11:21;;;;;;;25.30;14.63;;;;;;;15.55;89.66;100311.34;123642;1099;104293;-77
2023/05/27 00:13:50;;;;;;;22.97;15.10;;;;;;;15.53;89.59;100308.69;123358;1099;104340;-78
2023/05/27 00:16:19;;;;;;;21.20;13.97;;;;;;;15.51;90.13;100310.43;123824;1099;104268;-79
2023/05/27 00:18:49;;;;;;;22.63;14.03;;;;;;;15.50;90.46;100313.05;123756;1099;104675;-79
2023/05/27 00:21:17;;;;;;;22.97;14.07;;;;;;;15.45;90.45;100316.52;123775;1099;104333;-79
2023/05/27 00:23:47;;;;;;;23.47;14.93;;;;;;;15.44;90.33;100308.56;123584;1099;104462;-79
2023/05/27 00:26:16;;;;;;;20.97;14.07;;;;;;;15.41;90.39;100311.17;123660;1099;104299;-78
2023/05/27 00:28:46;;;;;;;25.73;14.73;;;;;;;15.39;90.60;100310.27;123695;1099;104270;-78
2023/05/27 00:31:15;;;;;;;24.40;14.70;;;;;;;15.35;91.10;100319.92;123789;1099;104316;-79
2023/05/27 00:33:44;;;;;;;22.07;14.40;;;;;;;15.32;90.50;100317.24;123391;1102;104255;-78
2023/05/27 00:36:12;;;;;;;22.20;13.63;;;;;;;15.30;90.82;100307.50;123663;1099;104399;-78
2023/05/27 00:38:41;;;;;;;23.80;14.70;;;;;;;15.28;90.68;100307.48;123452;1099;104306;-77
2023/05/27 00:41:12;;;;;;;20.00;13.90;;;;;;;15.28;90.59;100308.36;123777;1099;104299;-78
2023/05/27 00:43:41;;;;;;;25.50;14.63;;;;;;;15.28;90.89;100296.91;123669;1099;104430;-79
2023/05/27 00:46:09;;;;;;;22.13;14.23;;;;;;;15.27;90.80;100306.61;123887;1099;104171;-78
2023/05/27 00:48:38;;;;;;;20.95;13.10;;;;;;;15.25;90.95;100305.70;123875;1099;104236;-78
2023/05/27 00:51:07;;;;;;;22.03;13.70;;;;;;;15.24;90.90;100305.69;123747;1099;104267;-77
2023/05/27 00:53:40;;;;;;;21.30;13.47;;;;;;;15.23;91.06;100303.91;123776;1099;104264;-77
2023/05/27 00:56:09;;;;;;;20.92;13.80;;;;;;;15.20;90.83;100309.14;123868;1099;104344;-78
2023/05/27 00:58:39;;;;;;;20.70;13.87;;;;;;;15.19;90.98;100299.42;123851;1098;104757;-78
2023/05/27 01:01:07;;;;;;;23.03;13.60;;;;;;;15.18;91.58;100300.31;123779;1099;104373;-79
2023/05/27 01:03:36;;;;;;;24.17;14.23;;;;;;;15.15;92.12;100295.87;123939;1099;104235;-80
2023/05/27 01:06:15;;;;;;;20.60;13.77;;;;;;;15.13;91.66;100301.98;123905;1099;104313;-78
2023/05/27 01:08:52;;;;;;;23.23;13.23;;;;;;;15.10;91.50;100301.09;123781;1099;104293;-79
2023/05/27 01:11:28;;;;;;;22.63;14.00;;;;;;;15.09;91.33;100301.94;123574;1099;104359;-78
2023/05/27 01:14:03;;;;;;;23.93;14.90;;;;;;;15.09;92.08;100301.06;123920;1099;104479;-79
2023/05/27 01:16:33;;;;;;;24.30;14.53;;;;;;;15.09;92.09;100296.66;123840;1099;104648;-80
2023/05/27 01:19:04;;;;;;;21.10;14.33;;;;;;;15.06;91.65;100301.02;123874;1099;104271;-79
2023/05/27 01:21:39;;;;;;;22.10;14.50;;;;;;;15.06;91.93;100301.02;124086;1099;104226;-80
2023/05/27 01:24:08;;;;;;;23.67;14.53;;;;;;;15.04;92.37;100301.00;124023;1099;104266;-80
2023/05/27 01:26:38;;;;;;;26.07;15.27;;;;;;;15.04;92.51;100297.48;124258;1099;104192;-79
2023/05/27 01:29:07;;;;;;;21.65;14.80;;;;;;;15.05;92.50;100304.52;123887;1099;104264;-81
2023/05/27 01:31:45;;;;;;;23.87;14.50;;;;;;;15.05;91.59;100308.07;124277;1099;104262;-80
2023/05/27 01:34:19;;;;;;;23.43;15.20;;;;;;;15.04;92.29;100308.92;124419;1099;104252;-81
2023/05/27 01:36:55;;;;;;;23.73;15.27;;;;;;;15.05;92.43;100315.09;123846;1099;104345;-80
2023/05/27 01:39:25;;;;;;;23.27;15.00;;;;;;;15.03;92.08;100303.62;124434;1099;104331;-85
2023/05/27 01:41:55;;;;;;;22.30;14.90;;;;;;;15.01;92.18;100308.88;125042;1099;104220;-80
2023/05/27 01:44:24;;;;;;;21.30;14.47;;;;;;;15.00;92.66;100306.22;124395;1099;104252;-80
2023/05/27 01:46:58;;;;;;;24.57;15.10;;;;;;;15.00;91.77;100303.58;124046;1099;104210;-79
2023/05/27 01:49:26;;;;;;;22.32;14.58;;;;;;;14.99;92.16;100302.70;124052;1098;104236;-79
2023/05/27 01:51:55;;;;;;;23.07;14.67;;;;;;;14.99;91.84;100305.34;123760;1099;104367;-77
2023/05/27 01:54:23;;;;;;;22.87;15.60;;;;;;;14.99;92.23;100302.70;123799;1099;104264;-78
2023/05/27 01:56:52;;;;;;;23.90;14.30;;;;;;;14.96;92.78;100307.03;123869;1099;104323;-80
2023/05/27 01:59:21;;;;;;;22.57;15.10;;;;;;;14.94;92.41;100308.77;123517;1099;104264;-78
2023/05/27 02:01:49;;;;;;;22.20;15.45;;;;;;;14.91;92.15;100301.67;123478;1099;104358;-78
2023/05/27 02:04:18;;;;;;;25.93;15.30;;;;;;;14.89;93.15;100306.05;123754;1099;104419;-79
2023/05/27 02:06:46;;;;;;;23.35;14.40;;;;;;;14.87;92.41;100313.95;123798;1099;104262;-78
2023/05/27 02:09:15;;;;;;;23.57;15.57;;;;;;;14.87;92.68;100313.08;123420;1099;104338;-79
2023/05/27 02:11:43;;;;;;;23.93;15.73;;;;;;;14.84;93.41;100311.27;123515;1099;104329;-78
2023/05/27 02:14:13;;;;;;;24.30;16.03;;;;;;;14.83;93.25;100321.81;123696;1099;104295;-78
2023/05/27 02:16:42;;;;;;;25.83;15.83;;;;;;;14.82;92.74;100317.38;123511;1099;104347;-79
2023/05/27 02:19:11;;;;;;;27.53;15.73;;;;;;;14.80;92.94;100312.08;123832;1099;104309;-78
2023/05/27 02:21:39;;;;;;;22.60;15.00;;;;;;;14.79;93.22;100307.68;123588;1099;104316;-80
2023/05/27 02:24:08;;;;;;;24.83;14.93;;;;;;;14.79;93.67;100302.40;123622;1099;104309;-79
2023/05/27 02:26:37;;;;;;;22.40;14.13;;;;;;;14.81;93.04;100299.78;123751;1098;104223;-80
2023/05/27 02:29:05;;;;;;;21.50;14.07;;;;;;;14.83;93.86;100319.17;123776;1099;104347;-79
2023/05/27 02:31:34;;;;;;;23.23;14.43;;;;;;;14.84;93.72;100313.03;123815;1099;104280;-79
2023/05/27 02:34:02;;;;;;;22.87;14.83;;;;;;;14.87;93.32;100315.72;123607;1099;104322;-78
2023/05/27 02:36:31;;;;;;;23.47;14.07;;;;;;;14.88;93.28;100317.48;123942;1099;104239;-78
2023/05/27 02:38:59;;;;;;;23.00;14.97;;;;;;;14.90;93.49;100310.48;123537;1099;104358;-78
2023/05/27 02:41:28;;;;;;;22.53;14.40;;;;;;;14.92;94.64;100308.74;123687;1099;104405;-78
2023/05/27 02:43:56;;;;;;;21.60;13.87;;;;;;;14.93;93.64;100307.89;123943;1099;104243;-78
2023/05/27 02:46:25;;;;;;;23.17;14.03;;;;;;;14.97;94.24;100312.33;123883;1099;104216;-77
2023/05/27 02:48:53;;;;;;;22.07;13.80;;;;;;;14.99;93.73;100318.55;123864;1099;104271;-79
2023/05/27 02:51:23;;;;;;;22.90;14.10;;;;;;;15.03;94.58;100317.70;123703;1099;104243;-78
2023/05/27 02:53:51;;;;;;;23.27;13.20;;;;;;;15.10;94.20;100324.00;123864;1099;104306;-80
2023/05/27 02:56:21;;;;;;;22.47;13.83;;;;;;;15.16;94.56;100333.74;123548;1098;104286;-78
2023/05/27 02:58:52;;;;;;;23.07;14.00;;;;;;;15.23;94.87;100338.27;123600;1099;104341;-79
2023/05/27 03:01:21;;;;;;;24.03;13.90;;;;;;;15.27;94.04;100330.40;123760;1099;104264;-79
2023/05/27 03:03:50;;;;;;;20.43;12.70;;;;;;;15.33;93.80;100332.22;123764;1099;104361;-80
2023/05/27 03:06:18;;;;;;;22.47;13.57;;;;;;;15.39;94.12;100334.06;123961;1099;104271;-80
2023/05/27 03:08:47;;;;;;;24.07;13.30;;;;;;;15.44;94.45;100335.91;123634;1099;104318;-79
2023/05/27 03:11:15;;;;;;;23.10;13.30;;;;;;;15.50;94.14;100334.21;123938;1099;104287;-78
2023/05/27 03:13:44;;;;;;;22.73;12.97;;;;;;;15.53;94.09;100332.48;123984;1098;104274;-80
2023/05/27 03:16:13;;;;;;;21.80;12.50;;;;;;;15.57;94.81;100334.31;123760;1099;104308;-79
2023/05/27 03:18:42;;;;;;;21.27;12.87;;;;;;;15.63;94.18;100338.80;123695;1099;104396;-79
2023/05/27 03:21:11;;;;;;;21.27;12.87;;;;;;;15.68;93.93;100334.45;123614;1102;104252;-79
2023/05/27 03:23:40;;;;;;;20.40;12.13;;;;;;;15.76;94.29;100339.83;123881;1099;104280;-79
2023/05/27 03:26:08;;;;;;;22.77;13.07;;;;;;;15.83;94.34;100346.98;123516;1099;104299;-78
2023/05/27 03:28:37;;;;;;;19.40;11.97;;;;;;;15.87;94.83;100340.87;123850;1099;104335;-79
2023/05/27 03:31:06;;;;;;;23.87;12.57;;;;;;;15.94;94.02;100341.81;124038;1099;104399;-80
2023/05/27 03:33:44;;;;;;;21.20;11.87;;;;;;;16.00;94.59;100336.59;124006;1099;104236;-78
2023/05/27 03:36:13;;;;;;;20.40;12.07;;;;;;;16.03;94.21;100341.92;123588;1099;104325;-79
2023/05/27 03:38:41;;;;;;;22.57;11.93;;;;;;;16.07;94.36;100342.86;123903;1098;104245;-79
2023/05/27 03:41:10;;;;;;;19.93;11.27;;;;;;;16.10;94.50;100342.89;123701;1099;104239;-79
2023/05/27 03:43:39;;;;;;;19.87;11.53;;;;;;;16.14;94.42;100344.68;123746;1099;104345;-78
2023/05/27 03:46:08;;;;;;;22.97;12.43;;;;;;;16.17;94.63;100347.36;123668;1099;104239;-79
2023/05/27 03:48:37;;;;;;;19.37;11.53;;;;;;;16.24;94.23;100345.69;123710;1099;104377;-77
2023/05/27 03:51:06;;;;;;;19.83;11.07;;;;;;;16.27;93.77;100351.02;123392;1099;104239;-77
2023/05/27 03:53:35;;;;;;;18.13;10.97;;;;;;;16.32;93.63;100351.94;123303;1099;104338;-78
2023/05/27 03:56:06;;;;;;;21.53;11.50;;;;;;;16.35;93.62;100351.97;123693;1099;104329;-77
2023/05/27 03:58:35;;;;;;;18.73;11.17;;;;;;;16.42;93.83;100352.91;123815;1099;104268;-77
2023/05/27 04:01:03;;;;;;;19.13;10.17;;;;;;;16.51;94.00;100347.69;123417;1099;104252;-78
2023/05/27 04:03:33;;;;;;;18.90;11.10;;;;;;;16.59;93.31;100342.47;123506;1099;104354;-78
2023/05/27 04:06:02;;;;;;;18.63;11.07;;;;;;;16.67;93.53;100351.36;123691;1099;104393;-77
2023/05/27 04:08:31;;;;;;;19.73;10.43;;;;;;;16.77;93.68;100355.87;123546;1099;104485;-79
2023/05/27 04:11:00;;;;;;;20.90;11.03;;;;;;;16.85;93.47;100351.50;123855;1099;104441;-77
2023/05/27 04:13:28;;;;;;;18.80;11.20;;;;;;;16.97;93.53;100357.80;123664;1098;104262;-80
2023/05/27 04:15:57;;;;;;;21.00;11.07;;;;;;;17.02;92.45;100348.14;123809;1099;104265;-80
2023/05/27 04:18:26;;;;;;;17.60;10.27;;;;;;;17.04;92.18;100355.20;123727;1099;104420;-79
2023/05/27 04:20:54;;;;;;;23.00;10.80;;;;;;;17.04;92.16;100356.98;123873;1099;104255;-80
2023/05/27 04:23:23;;;;;;;18.37;9.80;;;;;;;17.05;92.23;100353.46;124246;1099;104277;-79
2023/05/27 04:25:52;;;;;;;19.73;10.60;;;;;;;17.10;92.04;100350.84;123881;1099;104235;-77
2023/05/27 04:28:23;;;;;;;19.17;10.23;;;;;;;17.14;91.83;100353.53;124043;1098;104185;-77
2023/05/27 04:30:53;;;;;;;18.93;10.73;;;;;;;17.14;91.69;100349.97;123862;1099;104366;-80
2023/05/27 04:33:28;;;;;;;22.53;10.57;;;;;;;17.11;91.25;100356.16;123646;1099;104416;-78
2023/05/27 04:35:57;;;;;;;18.10;10.33;;;;;;;17.11;91.28;100360.55;123746;1099;104267;-80
2023/05/27 04:38:31;;;;;;;18.27;10.57;;;;;;;17.11;91.32;100353.50;123744;1102;104325;-77
2023/05/27 04:41:04;;;;;;;17.60;10.23;;;;;;;17.16;90.83;100361.48;123832;1099;104338;-78
2023/05/27 04:44:04;;;;;;;17.37;9.53;;;;;;;17.20;90.60;100369.47;124037;1099;104255;-77
2023/05/27 04:46:38;;;;;;;18.60;10.10;;;;;;;17.21;90.70;100375.66;123923;1099;104354;-76
2023/05/27 04:49:08;;;;;;;20.33;9.93;;;;;;;17.22;90.44;100378.31;124015;1099;104220;-78
2023/05/27 04:51:37;;;;;;;19.83;10.40;;;;;;;17.25;90.04;100380.98;123712;1099;104328;-77
2023/05/27 04:54:05;;;;;;;18.53;10.70;;;;;;;17.31;90.05;100374.84;123560;1099;104319;-76
2023/05/27 04:56:36;;;;;;;22.47;10.40;;;;;;;17.36;89.10;100380.18;123970;1099;104343;-80
2023/05/27 04:59:05;;;;;;;18.70;10.00;;;;;;;17.40;88.90;100373.99;124011;1099;104718;-80
2023/05/27 05:01:48;;;;;;;18.83;9.90;;;;;;;17.45;88.92;100388.16;124187;1099;104329;-79
2023/05/27 05:04:25;;;;;;;19.07;9.73;;;;;;;17.51;88.74;100390.84;123880;1099;104252;-76
2023/05/27 05:06:59;;;;;;;18.25;9.60;;;;;;;17.57;88.29;100382.05;123954;1099;104348;-78
2023/05/27 05:09:29;;;;;;;18.07;9.50;;;;;;;17.61;87.93;100392.69;123919;1099;104256;-77
2023/05/27 05:12:03;;;;;;;17.07;9.37;;;;;;;17.65;88.11;100396.23;123844;1099;104357;-77
2023/05/27 05:14:31;;;;;;;18.80;9.63;;;;;;;17.67;87.78;100394.49;123825;1099;104264;-79
2023/05/27 05:17:00;;;;;;;18.37;9.77;;;;;;;17.69;87.40;100397.16;124101;1099;104232;-82
2023/05/27 05:19:28;;;;;;;16.53;9.73;;;;;;;17.71;87.27;100401.57;124123;1099;104275;-81
2023/05/27 05:21:57;;;;;;;18.10;9.90;;;;;;;17.76;87.63;100396.28;123913;1099;104345;-79
2023/05/27 05:24:26;;;;;;;17.40;10.03;;;;;;;17.82;87.38;100400.74;123830;1099;104377;-80
2023/05/27 05:26:54;;;;;;;18.37;9.80;;;;;;;17.88;87.44;100401.69;123848;1099;104240;-81
2023/05/27 05:29:24;;;;;;;19.00;10.00;;;;;;;17.96;87.06;100405.24;123791;1099;104360;-79
2023/05/27 05:31:53;;;;;;;18.03;9.73;;;;;;;18.03;87.03;100405.27;124207;1099;104225;-79
2023/05/27 05:34:23;;;;;;;19.60;9.70;;;;;;;18.12;86.50;100399.99;123857;1099;104268;-78
2023/05/27 05:36:51;;;;;;;17.43;10.47;;;;;;;18.22;86.19;100399.16;123761;1098;104252;-81
2023/05/27 05:39:20;;;;;;;19.17;9.60;;;;;;;18.31;86.30;100407.14;123964;1099;104274;-79
2023/05/27 05:41:50;;;;;;;17.87;9.60;;;;;;;18.41;86.34;100394.77;124119;1099;104322;-80
2023/05/27 05:44:20;;;;;;;23.17;9.90;;;;;;;18.51;84.98;100398.31;124014;1099;104274;-79
2023/05/27 05:46:49;;;;;;;17.85;9.80;;;;;;;18.57;85.13;100403.63;124016;1099;104521;-79
2023/05/27 05:49:19;;;;;;;19.97;9.83;;;;;;;18.64;84.92;100400.11;123631;1099;104440;-80
2023/05/27 05:51:48;;;;;;;18.03;10.00;;;;;;;18.72;84.48;100407.22;123852;1099;104219;-78
2023/05/27 05:54:17;;;;;;;16.80;9.27;;;;;;;18.80;84.35;100405.44;123735;1099;104248;-78
2023/05/27 05:56:48;;;;;;;21.83;10.40;;;;;;;18.86;84.75;100400.16;123696;1099;104317;-78
2023/05/27 05:59:17;;;;;;;18.37;9.80;;;;;;;18.92;84.50;100401.95;123928;1099;104344;-79
2023/05/27 06:01:45;;;;;;;18.90;9.23;;;;;;;18.98;83.33;100402.82;123667;1099;104414;-79
2023/05/27 06:04:14;;;;;;;17.67;9.90;;;;;;;18.99;83.30;100407.23;123747;1099;104319;-79
2023/05/27 06:06:45;;;;;;;18.10;9.50;;;;;;;19.00;82.69;100411.67;123984;1099;110763;-78
2023/05/27 06:09:32;;;;;;;19.27;10.00;;;;;;;19.02;82.05;100406.35;124058;1099;104316;-81
2023/05/27 06:12:04;;;;;;;17.27;10.17;;;;;;;19.09;82.36;100409.89;123744;1099;104265;-79
2023/05/27 06:14:38;;;;;;;21.30;10.45;;;;;;;19.19;82.28;100419.64;123918;1099;104430;-77
2023/05/27 06:17:07;;;;;;;17.30;9.93;;;;;;;19.30;82.73;100417.84;123778;1098;104390;-78
2023/05/27 06:19:35;;;;;;;20.43;9.73;;;;;;;19.40;82.17;100416.08;123542;1099;104344;-77
2023/05/27 06:22:05;;;;;;;18.23;9.90;;;;;;;19.51;82.08;100418.69;124167;1099;104262;-78
2023/05/27 06:24:56;;;;;;;16.50;8.80;;;;;;;19.54;81.39;100427.58;123832;1099;104354;-79
2023/05/27 06:27:31;;;;;;;16.07;8.73;;;;;;;19.64;81.23;100433.75;123965;1099;104386;-78
2023/05/27 06:30:00;;;;;;;19.63;9.63;;;;;;;19.78;81.04;100430.21;123889;1099;104344;-78
2023/05/27 06:32:36;;;;;;;19.40;9.90;;;;;;;19.85;80.94;100434.60;124014;1099;104259;-79
2023/05/27 06:35:07;;;;;;;18.43;10.27;;;;;;;19.90;79.51;100430.17;123805;1099;104252;-80
2023/05/27 06:37:36;;;;;;;21.23;9.83;;;;;;;19.97;80.39;100433.69;124086;1099;104322;-79
2023/05/27 06:40:07;;;;;;;17.37;9.40;;;;;;;20.09;80.24;100439.84;124103;1099;104246;-78
2023/05/27 06:42:36;;;;;;;17.07;9.20;;;;;;;20.20;80.08;100442.45;124030;1099;104277;-78
2023/05/27 06:45:12;;;;;;;21.90;9.53;;;;;;;20.32;79.58;100444.19;123722;1099;104318;-78
2023/05/27 06:47:41;;;;;;;17.77;9.30;;;;;;;20.40;79.84;100447.69;123933;1099;104268;-78
2023/05/27 06:50:11;;;;;;;16.97;9.10;;;;;;;20.50;79.23;100440.52;123744;1102;104304;-79
2023/05/27 06:52:40;;;;;;;15.47;9.77;;;;;;;20.58;78.61;100436.01;123699;1102;104322;-80
2023/05/27 06:55:14;;;;;;;18.80;9.30;;;;;;;20.70;78.15;100434.21;123840;1099;104252;-77
2023/05/27 06:58:08;;;;;;;16.43;9.00;;;;;;;20.89;78.46;100434.95;123676;1099;112045;-78
2023/05/27 07:00:52;;;;;;;;;;;;;;;21.00;76.19;100430.41;123838;1099;104329;-78
2023/05/27 07:03:32;;;;;;;16.57;8.73;;;;;;;21.09;77.78;100430.34;123763;1099;104267;-78
2023/05/27 07:06:01;;;;;;;18.43;8.57;;;;;;;21.18;77.08;100437.39;123857;1099;104418;-79
2023/05/27 07:08:32;;;;;;;15.47;8.27;;;;;;;21.18;76.50;100426.71;123848;1099;104265;-78
2023/05/27 07:11:21;;;;;;;17.03;8.70;;;;;;;21.16;75.87;100429.39;123451;1098;104313;-79
2023/05/27 07:13:50;;;;;;;16.60;8.60;;;;;;;21.27;75.75;100426.63;123747;1098;104268;-80
2023/05/27 07:16:21;;;;;;;15.45;8.05;;;;;;;21.34;75.71;100436.33;123763;1099;104399;-77
2023/05/27 07:18:50;;;;;;;14.40;8.00;;;;;;;21.35;76.03;100445.23;123475;1099;104389;-77
2023/05/27 07:21:19;;;;;;;15.55;8.80;;;;;;;21.35;75.56;100437.23;123875;1098;104235;-78
2023/05/27 07:23:48;;;;;;;15.20;8.50;;;;;;;21.36;75.35;100439.89;123645;1099;104348;-79
2023/05/27 07:26:26;;;;;;;13.80;8.07;;;;;;;21.54;75.23;100432.62;123685;1099;104229;-78
2023/05/27 07:28:58;;;;;;;16.30;8.35;;;;;;;21.77;74.54;100428.79;123985;1099;104366;-79
2023/05/27 07:31:47;;;;;;;16.00;7.83;;;;;;;21.97;74.56;100431.23;123573;1099;104240;-80
2023/05/27 07:34:17;;;;;;;14.93;8.27;;;;;;;22.13;74.66;100434.58;123664;1099;104271;-77
2023/05/27 07:36:45;;;;;;;16.77;8.40;;;;;;;22.19;73.90;100427.39;123804;1098;104609;-77
2023/05/27 07:39:14;;;;;;;16.23;8.23;;;;;;;22.41;74.23;100429.80;123961;1099;104239;-80
2023/05/27 07:41:42;;;;;;;13.23;7.03;;;;;;;22.70;74.18;100429.34;124223;1099;104239;-77
2023/05/27 07:44:11;;;;;;;13.47;7.20;;;;;;;22.82;73.01;100430.96;123557;1099;104316;-77
2023/05/27 07:46:40;;;;;;;12.23;6.10;;;;;;;22.85;72.28;100433.58;124118;1099;104344;-77
2023/05/27 07:49:08;;;;;;;10.50;6.20;;;;;;;22.96;71.80;100430.73;123569;1099;104456;-77
2023/05/27 07:51:42;;;;;;;13.80;7.20;;;;;;;23.17;71.05;100423.28;123953;1099;104239;-79
2023/05/27 07:54:12;;;;;;;14.83;7.43;;;;;;;23.33;71.94;100427.47;124272;1099;104312;-78
2023/05/27 07:56:41;;;;;;;14.30;7.30;;;;;;;23.46;71.65;100422.76;124074;1099;104312;-79
2023/05/27 07:59:09;;;;;;;13.83;7.60;;;;;;;23.54;71.21;100420.81;123827;1099;104313;-78
2023/05/27 08:01:38;;;;;;;11.63;6.70;;;;;;;23.60;70.93;100426.05;123884;1099;104268;-79
2023/05/27 08:04:06;;;;;;;13.45;6.80;;;;;;;23.66;70.51;100431.28;124061;1098;104271;-78
2023/05/27 08:06:38;;;;;;;13.67;6.40;;;;;;;23.73;70.27;100421.33;123785;1099;104267;-78
2023/05/27 08:09:14;;;;;;;11.43;6.47;;;;;;;23.82;69.42;100430.98;123819;1099;104341;-79
2023/05/27 08:12:01;;;;;;;15.65;6.50;;;;;;;23.79;69.91;100434.60;123925;1099;104309;-79
2023/05/27 08:14:48;;;;;;;10.10;5.80;;;;;;;23.84;69.48;100439.91;123619;1098;104316;-77
2023/05/27 08:17:16;;;;;;;9.10;5.43;;;;;;;23.84;68.49;100437.22;123922;1099;104258;-79
2023/05/27 08:20:03;;;;;;;12.90;6.10;;;;;;;23.81;67.92;100442.61;123881;1099;117279;-79
2023/05/27 08:22:50;;;;;;;11.70;5.70;;;;;;;23.88;68.05;100440.74;123589;1099;104427;-78
2023/05/27 08:25:37;;;;;;;11.27;5.80;;;;;;;23.85;68.10;100436.31;124192;1099;104716;-79
2023/05/27 08:28:38;;;;;;;9.57;4.70;;;;;;;23.89;67.11;100440.71;123782;1099;104801;-78
2023/05/27 08:31:21;;;;;;;9.90;5.00;;;;;;;23.87;66.85;100439.84;124035;1099;104245;-79
2023/05/27 08:33:54;;;;;;;10.45;4.80;;;;;;;23.92;66.46;100451.38;123837;1099;104245;-78
2023/05/27 08:36:23;;;;;;;10.03;4.97;;;;;;;23.85;65.78;100437.19;124140;1099;104475;-80
2023/05/27 08:38:56;;;;;;;10.90;4.80;;;;;;;23.76;65.07;100450.73;123709;1099;104239;-78
2023/05/27 08:41:37;;;;;;;14.73;4.27;;;;;;;23.76;65.82;100447.19;123669;1102;104287;-80
2023/05/27 08:44:06;;;;;;;8.13;4.50;;;;;;;23.61;64.51;100454.61;123789;1099;104271;-78
2023/05/27 08:46:36;;;;;;;10.43;4.70;;;;;;;23.44;63.99;100454.05;123399;1102;104431;-78
2023/05/27 08:49:06;;;;;;;8.10;4.43;;;;;;;23.38;64.61;100451.48;124018;1099;104373;-79
2023/05/27 08:51:39;;;;;;;8.77;4.33;;;;;;;23.37;64.17;100452.38;123955;1099;104399;-81
2023/05/27 08:54:09;;;;;;;8.97;4.73;;;;;;;23.38;63.84;100457.70;124025;1099;104360;-79
2023/05/27 08:56:39;;;;;;;10.33;4.90;;;;;;;23.43;64.21;100455.81;123978;1099;104234;-80
2023/05/27 08:59:09;;;;;;;12.30;4.53;;;;;;;23.47;63.91;100452.19;123932;1099;104373;-82
2023/05/27 09:01:39;;;;;;;8.83;4.13;;;;;;;23.44;63.55;100451.37;124182;1099;104685;-83
2023/05/27 09:04:08;;;;;;;9.93;4.37;;;;;;;23.26;62.82;100448.08;123791;1099;104284;-82
2023/05/27 09:06:37;;;;;;;7.33;4.50;;;;;;;23.22;63.29;100443.72;123981;1099;104341;-82
2023/05/27 09:09:08;;;;;;;7.80;4.60;;;;;;;23.27;63.74;100444.51;124113;1099;104338;-81
2023/05/27 09:11:40;;;;;;;9.50;4.40;;;;;;;23.34;63.34;100450.63;124079;1099;104236;-81
2023/05/27 09:14:08;;;;;;;10.73;4.60;;;;;;;23.49;63.49;100441.45;124117;1098;104264;-80
2023/05/27 09:16:43;;;;;;;8.77;4.70;;;;;;;23.63;63.42;100442.06;124061;1099;104753;-81
2023/05/27 09:19:17;;;;;;;9.40;4.57;;;;;;;23.76;63.16;100444.50;123944;1099;104345;-80
2023/05/27 09:21:46;;;;;;;6.33;4.27;;;;;;;23.86;63.26;100440.77;124080;1099;104326;-81
2023/05/27 09:24:14;;;;;;;8.27;4.20;;;;;;;23.86;62.82;100438.97;124238;1099;104254;-83
2023/05/27 09:26:43;;;;;;;7.65;4.00;;;;;;;23.77;61.56;100435.56;124105;1099;104222;-79
2023/05/27 09:29:12;;;;;;;9.73;4.00;;;;;;;23.74;61.52;100435.62;123865;1099;104341;-81
2023/05/27 09:31:41;;;;;;;6.27;3.70;;;;;;;23.78;61.84;100426.59;124129;1099;104202;-81
2023/05/27 09:34:14;;;;;;;9.73;3.80;;;;;;;23.90;61.56;100428.19;123941;1099;104274;-82
2023/05/27 09:36:47;;;;;;;6.20;3.67;;;;;;;23.90;59.52;100422.83;124176;1098;104258;-81
2023/05/27 09:39:17;;;;;;;8.47;3.70;;;;;;;24.00;59.92;100429.77;124249;1099;105599;-82
2023/05/27 09:41:52;;;;;;;9.43;4.00;;;;;;;24.12;60.24;100424.16;124440;1099;104344;-82
2023/05/27 09:44:22;;;;;;;8.00;4.20;;;;;;;24.30;59.99;100417.48;124189;1099;104376;-80
2023/05/27 09:46:54;;;;;;;10.27;4.47;;;;;;;24.43;59.89;100426.13;124154;1099;104269;-81
2023/05/27 09:49:27;;;;;;;10.63;4.87;;;;;;;24.48;59.68;100418.89;124056;1099;104278;-85
2023/05/27 09:51:57;;;;;;;9.10;4.87;;;;;;;24.49;58.77;100412.58;124194;1099;107070;-82
2023/05/27 09:54:26;;;;;;;9.73;4.73;;;;;;;24.58;59.07;100416.90;124189;1099;104341;-81
2023/05/27 09:56:57;;;;;;;7.10;4.37;;;;;;;24.58;59.21;100412.41;124332;1099;104311;-81
2023/05/27 09:59:25;;;;;;;7.70;4.40;;;;;;;24.59;58.63;100407.94;124287;1099;104191;-82
2023/05/27 10:01:54;;;;;;;8.20;4.50;;;;;;;24.56;58.92;100406.17;124083;1099;104299;-81
2023/05/27 10:04:24;;;;;;;9.97;4.53;;;;;;;24.53;58.24;100402.69;124040;1099;104259;-80
2023/05/27 10:06:54;;;;;;;7.93;4.37;;;;;;;24.56;58.33;100403.48;124503;1099;104246;-80
2023/05/27 10:09:23;;;;;;;7.77;4.70;;;;;;;24.55;58.80;100401.71;124730;1099;104239;-80
2023/05/27 10:11:51;;;;;;;7.43;4.50;;;;;;;24.47;58.35;100387.61;124534;1099;104268;-82
2023/05/27 10:14:21;;;;;;;7.17;4.47;;;;;;;24.53;58.35;100394.64;124287;1099;104246;-82
2023/05/27 10:16:55;;;;;;;9.90;4.37;;;;;;;24.57;57.91;100388.30;124327;1099;104357;-82
2023/05/27 10:19:24;;;;;;;10.20;4.40;;;;;;;24.61;58.44;100403.41;124327;1099;104274;-78
2023/05/27 10:21:53;;;;;;;6.90;4.43;;;;;;;24.58;57.34;100398.12;124148;1099;104657;-78
2023/05/27 10:24:33;;;;;;;12.60;4.67;;;;;;;24.58;57.00;100387.39;124133;1099;104239;-80
2023/05/27 10:27:02;;;;;;;7.87;4.60;;;;;;;24.63;57.20;100377.42;124233;1099;104274;-80
2023/05/27 10:29:37;;;;;;;7.70;4.23;;;;;;;24.72;56.92;100376.33;124285;1099;104319;-80
2023/05/27 10:32:06;;;;;;;9.60;4.70;;;;;;;24.71;56.65;100379.91;123584;1099;104216;-78
2023/05/27 10:34:42;;;;;;;8.07;4.47;;;;;;;24.80;56.08;100374.33;124176;1099;104270;-80
2023/05/27 10:37:11;;;;;;;9.23;4.70;;;;;;;24.83;56.92;100368.87;123988;1098;104268;-78
2023/05/27 10:39:48;;;;;;;10.90;4.70;;;;;;;24.90;56.39;100366.91;124110;1099;104274;-77
2023/05/27 10:42:23;;;;;;;9.23;5.10;;;;;;;24.78;55.44;100364.53;124201;1099;104421;-77
2023/05/27 10:45:05;;;;;;;9.40;5.07;;;;;;;24.83;56.49;100358.14;124238;1099;104251;-79
2023/05/27 10:47:37;;;;;;;12.33;5.20;;;;;;;24.91;55.75;100345.41;124432;1099;104242;-79
2023/05/27 10:50:14;;;;;;;9.50;5.07;;;;;;;24.96;55.58;100347.09;123977;1098;104315;-77
2023/05/27 10:52:43;;;;;;;8.07;5.00;;;;;;;24.99;55.51;100336.28;123822;1099;104287;-80
2023/05/27 10:55:12;;;;;;;10.77;5.33;;;;;;;25.11;56.34;100336.83;123799;1099;104399;-77
2023/05/27 10:57:42;;;;;;;9.73;4.93;;;;;;;25.10;55.84;100332.40;124027;1099;104373;-77
2023/05/27 11:00:20;;;;;;;9.57;4.93;;;;;;;25.10;55.38;100328.81;123793;1099;104245;-76
2023/05/27 11:02:48;;;;;;;8.20;4.70;;;;;;;25.05;55.70;100326.25;123822;1099;104273;-77
2023/05/27 11:05:20;;;;;;;7.87;4.73;;;;;;;25.01;55.13;100319.23;123717;1099;104219;-76
2023/05/27 11:07:48;;;;;;;11.07;5.53;;;;;;;25.10;55.98;100316.30;123536;1099;104677;-79
2023/05/27 11:10:17;;;;;;;5.70;3.70;;;;;;;25.12;55.15;100310.88;123717;1099;104645;-80
2023/05/27 11:12:45;;;;;;;6.40;3.47;;;;;;;25.05;53.90;100307.46;123998;1099;104319;-80
2023/05/27 11:15:14;;;;;;;5.50;3.60;;;;;;;25.11;54.19;100304.61;123833;1099;104325;-78
2023/05/27 11:17:42;;;;;;;5.90;3.70;;;;;;;25.27;54.77;100302.41;124462;1099;104268;-79